Tuesday, January 17, 2017, 3:49 AM EST
Back to Local

KCXY, Harrisburg Capital City

Location: New Cumberland, PA, United States Lat: 40.217
Local Time: 3:49 AM EST ( 8:49 GMT) Lon: -76.85
Time Zone: US/Eastern Elev: 347 ft

Show me the last for .
Show Decoded

2017-01-17 02:56 METAR KCXY 170756Z 10003KT 9SM OVC020 03/M03 A3025 RMK AO2 SLP247 T00281028 =
2017-01-17 01:56 METAR KCXY 170656Z 11003KT 9SM OVC024 02/M03 A3025 RMK AO2 SLP249 T00221028 =
2017-01-17 00:56 METAR KCXY 170556Z 08003KT 10SM BKN015 OVC023 03/M03 A3026 RMK AO2 SLP251 60000
                 T00281028 10028 20022 56023 =
2017-01-16 23:56 METAR KCXY 170456Z 00000KT 10SM OVC016 02/M03 A3028 RMK AO2 SLP258 T00221028
                 400281061 =
2017-01-16 22:56 METAR KCXY 170356Z 12003KT 10SM OVC018 02/M03 A3030 RMK AO2 SLP265 T00221028 =
2017-01-16 21:56 METAR KCXY 170256Z 10003KT 10SM OVC024 02/M03 A3033 RMK AO2 SLP274 60000
                 T00221028 56007 =
2017-01-16 21:13 METAR KCXY 170213Z 00000KT 10SM BKN025 OVC035 03/M03 A3034 RMK AO2 T00281028 =
2017-01-16 20:56 METAR KCXY 170156Z 00000KT 10SM FEW027 OVC035 03/M03 A3034 RMK AO2 RAB04E13
                 SLP278 P0000 T00281028 =
2017-01-16 19:56 METAR KCXY 170056Z 10003KT 10SM OVC041 03/M03 A3033 RMK AO2 RAB32E48 SLP277
                 P0000 T00281028 =
2017-01-16 18:56 METAR KCXY 162356Z 00000KT 10SM OVC044 03/M04 A3035 RMK AO2 SLP282 T00281039
                 10028 20017 58005 =
2017-01-16 17:56 METAR KCXY 162256Z 00000KT 10SM SCT026 BKN055 OVC070 03/M04 A3036 RMK AO2 SLP286
                 T00281039 =
2017-01-16 16:56 METAR KCXY 162156Z 11003KT 10SM FEW026 OVC080 03/M04 A3036 RMK AO2 SLP287
                 T00281044 =
2017-01-16 16:14 METAR KCXY 162114Z 12005KT 10SM SCT025 BKN032 OVC085 03/M04 A3037 RMK AO2
                 T00281044 =
2017-01-16 15:56 METAR KCXY 162056Z 11005KT 10SM OVC025 03/M04 A3036 RMK AO2 SLP287 T00281044
                 56011 =
2017-01-16 14:56 METAR KCXY 161956Z 11005KT 10SM BKN022 BKN031 OVC110 03/M05 A3037 RMK AO2 SLP289
                 T00281050 =
2017-01-16 13:56 METAR KCXY 161856Z 10006KT 10SM OVC020 02/M05 A3037 RMK AO2 SLP288 T00221050 =
2017-01-16 12:56 METAR KCXY 161756Z 10005KT 10SM OVC023 02/M05 A3040 RMK AO2 SLP298 T00171050
                 10017 21061 58024 =
2017-01-16 11:56 METAR KCXY 161656Z 11003KT 8SM OVC026 01/M05 A3044 RMK AO2 SLP312 T00111050 =
2017-01-16 10:56 METAR KCXY 161556Z 13003KT 8SM BKN028 01/M05 A3046 RMK AO2 SLP321 T00061050 =
2017-01-16 09:56 METAR KCXY 161456Z 11003KT 7SM HZ CLR M01/M06 A3047 RMK AO2 SLP323 T10111056
                 53001 =
2017-01-16 08:56 METAR KCXY 161356Z 00000KT 6SM HZ CLR M03/M06 A3047 RMK AO2 SLP323 T10331056 =
2017-01-16 07:56 METAR KCXY 161256Z 00000KT 6SM HZ CLR M06/M08 A3046 RMK AO2 SLP321 T10561083 =
2017-01-16 06:56 METAR KCXY 161156Z 00000KT 7SM CLR M06/M08 A3046 RMK AO2 SLP322 T10611083 11039
                 21061 53009 =
2017-01-16 05:56 METAR KCXY 161056Z AUTO 22004KT 7SM SCT032 M06/M08 A3045 RMK AO2 SLP318
                 T10611083 =
2017-01-16 04:56 METAR KCXY 160956Z AUTO 23003KT 8SM CLR M06/M08 A3045 RMK AO2 SLP316 T10611083 =
2017-01-16 03:56 METAR KCXY 160856Z AUTO 00000KT 10SM CLR M04/M08 A3044 RMK AO2 SLP312 T10441078
                 50004 =

Support USWX by starting your Amazon purchase here.